Time;durP1;ratioP1;P1;durP2;ratioP2;P2;SDS_P1;SDS_P2;PMS_P1;PMS_P2;Temp;Humidity;BMP_temperature;BMP_pressure;BME280_temperature;BME280_humidity;BME280_pressure;Samples;Min_cycle;Max_cycle;Signal;HPM_P1;HPM_P2
2021/12/20 00:00:25;;;;;;;;;;;;;;;;;;999283;29;922;-34
2021/12/20 00:00:55;;;;;;;;;;;;;;;;;;998818;29;947;-37
2021/12/20 00:01:26;;;;;;;;;;;;;;;;;;995862;29;1176;-37
2021/12/20 00:01:56;;;;;;;;;;;;;;;;;;1006876;29;1416;-37
2021/12/20 00:02:27;;;;;;;;;;;;;;;;;;1007588;29;1004;-37
2021/12/20 00:02:59;;;;;;;;;;;;;;;;;;998801;29;1304;-38
2021/12/20 00:03:30;;;;;;;;;;;;;;;;;;998807;29;1278;-35
2021/12/20 00:04:00;;;;;;;;;;;;;;;;;;999198;29;1052;-36
2021/12/20 00:04:30;;;;;;;;;;;;;;;;;;1001070;29;1346;-37
2021/12/20 00:05:01;;;;;;;;;;;;;;;;;;1006474;29;1342;-36
2021/12/20 00:05:31;;;;;;;;;;;;;;;;;;1011217;29;820;-38
2021/12/20 00:06:02;;;;;;;;;;;;;;;;;;1011207;29;1845;-37
2021/12/20 00:06:33;;;;;;;;;;;;;;;;;;1011383;29;1615;-37
2021/12/20 00:07:03;;;;;;;;;;;;;;;;;;1002729;29;1076;-38
2021/12/20 00:07:34;;;;;;;;;;;;;;;;;;999063;29;974;-36
2021/12/20 00:08:04;;;;;;;;;;;;;;;;;;999151;29;1200;-38
2021/12/20 00:08:36;;;;;;;;;;;;;;;;;;995112;29;1140;-37
2021/12/20 00:09:06;;;;;;;;;;;;;;;;;;995488;29;1223;-38
2021/12/20 00:09:36;;;;;;;;;;;;;;;;;;998774;29;1184;-37
2021/12/20 00:10:07;;;;;;;;;;;;;;;;;;1002673;29;983;-36
2021/12/20 00:10:38;;;;;;;;;;;;;;;;;;1011339;29;1161;-37
2021/12/20 00:11:08;;;;;;;;;;;;;;;;;;1011157;29;1136;-37
2021/12/20 00:11:39;;;;;;;;;;;;;;;;;;1006721;29;1071;-37
2021/12/20 00:12:09;;;;;;;;;;;;;;;;;;1006593;29;1564;-37
2021/12/20 00:12:40;;;;;;;;;;;;;;;;;;1006700;29;1027;-37
2021/12/20 00:13:10;;;;;;;;;;;;;;;;;;1006816;29;1138;-36
2021/12/20 00:13:41;;;;;;;;;;;;;;;;;;1010499;29;1039;-36
2021/12/20 00:14:12;;;;;;;;;;;;;;;;;;1010530;29;1043;-34
2021/12/20 00:14:42;;;;;;;;;;;;;;;;;;1006657;29;1162;-38
2021/12/20 00:15:13;;;;;;;;;;;;;;;;;;1006225;29;1432;-36
2021/12/20 00:15:44;;;;;;;;;;;;;;;;;;1006934;29;987;-37
2021/12/20 00:16:15;;;;;;;;;;;;;;;;;;1006894;29;975;-37
2021/12/20 00:16:45;;;;;;;;;;;;;;;;;;1006720;29;1111;-38
2021/12/20 00:17:16;;;;;;;;;;;;;;;;;;1006706;29;1927;-35
2021/12/20 00:17:46;;;;;;;;;;;;;;;;;;1006402;29;1631;-33
2021/12/20 00:18:16;;;;;;;;;;;;;;;;;;1006714;29;1031;-37
2021/12/20 00:18:47;;;;;;;;;;;;;;;;;;1011168;29;1209;-37
2021/12/20 00:19:17;;;;;;;;;;;;;;;;;;1011158;29;1727;-36
2021/12/20 00:19:48;;;;;;;;;;;;;;;;;;1011172;29;1089;-37
2021/12/20 00:20:19;;;;;;;;;;;;;;;;;;1006379;29;1072;-38
2021/12/20 00:20:50;;;;;;;;;;;;;;;;;;1006666;29;948;-35
2021/12/20 00:21:20;;;;;;;;;;;;;;;;;;1002997;29;1109;-37
2021/12/20 00:21:50;;;;;;;;;;;;;;;;;;1002729;29;833;-38
2021/12/20 00:22:21;;;;;;;;;;;;;;;;;;1003115;29;840;-36
2021/12/20 00:22:51;;;;;;;;;;;;;;;;;;1002952;29;1159;-38
2021/12/20 00:23:22;;;;;;;;;;;;;;;;;;1011463;29;891;-35
2021/12/20 00:23:52;;;;;;;;;;;;;;;;;;1010853;29;971;-38
2021/12/20 00:24:22;;;;;;;;;;;;;;;;;;1011310;29;1094;-36
2021/12/20 00:24:53;;;;;;;;;;;;;;;;;;1011275;29;1009;-37
2021/12/20 00:25:24;;;;;;;;;;;;;;;;;;1011521;29;963;-37
2021/12/20 00:25:54;;;;;;;;;;;;;;;;;;1011974;29;979;-36
2021/12/20 00:26:25;;;;;;;;;;;;;;;;;;1007333;29;1149;-36
2021/12/20 00:26:55;;;;;;;;;;;;;;;;;;1007353;29;1167;-37
2021/12/20 00:27:26;;;;;;;;;;;;;;;;;;1007520;29;1109;-37
2021/12/20 00:27:56;;;;;;;;;;;;;;;;;;999765;29;963;-38
2021/12/20 00:28:27;;;;;;;;;;;;;;;;;;1003636;29;1040;-37
2021/12/20 00:28:57;;;;;;;;;;;;;;;;;;1003541;29;1269;-37
2021/12/20 00:29:28;;;;;;;;;;;;;;;;;;996030;29;997;-37
2021/12/20 00:29:59;;;;;;;;;;;;;;;;;;1003640;29;891;-38
2021/12/20 00:30:29;;;;;;;;;;;;;;;;;;1003266;29;1094;-36
2021/12/20 00:31:00;;;;;;;;;;;;;;;;;;1003098;29;1140;-36
2021/12/20 00:31:30;;;;;;;;;;;;;;;;;;1007338;29;896;-37
2021/12/20 00:32:01;;;;;;;;;;;;;;;;;;1007453;29;1129;-36
2021/12/20 00:32:31;;;;;;;;;;;;;;;;;;1007337;29;1093;-37
2021/12/20 00:33:02;;;;;;;;;;;;;;;;;;1007295;29;1077;-37
2021/12/20 00:33:36;;;;;;;;;;;;;;;;;;1010945;29;1148;-37
2021/12/20 00:34:06;;;;;;;;;;;;;;;;;;1011252;29;1105;-34
2021/12/20 00:34:37;;;;;;;;;;;;;;;;;;1011409;29;915;-35
2021/12/20 00:35:07;;;;;;;;;;;;;;;;;;1007201;29;1412;-35
2021/12/20 00:35:38;;;;;;;;;;;;;;;;;;1007637;29;1271;-36
2021/12/20 00:36:09;;;;;;;;;;;;;;;;;;1006845;29;1477;-36
2021/12/20 00:36:40;;;;;;;;;;;;;;;;;;1007674;29;1018;-37
2021/12/20 00:40:28;;;;;;;;;;;;;;;;;;999885;29;1527;-36
2021/12/20 00:40:58;;;;;;;;;;;;;;;;;;1003240;29;1159;-37
2021/12/20 00:41:29;;;;;;;;;;;;;;;;;;1003173;29;1449;-35
2021/12/20 00:42:00;;;;;;;;;;;;;;;;;;999716;29;985;-35
2021/12/20 00:42:30;;;;;;;;;;;;;;;;;;1003527;29;1098;-31
2021/12/20 00:43:01;;;;;;;;;;;;;;;;;;1007117;29;1640;-37
2021/12/20 00:43:32;;;;;;;;;;;;;;;;;;1007375;29;951;-37
2021/12/20 00:44:02;;;;;;;;;;;;;;;;;;1011102;29;1318;-37
2021/12/20 00:44:33;;;;;;;;;;;;;;;;;;1007301;29;1096;-35
2021/12/20 00:45:05;;;;;;;;;;;;;;;;;;1007253;29;1023;-37
2021/12/20 00:45:36;;;;;;;;;;;;;;;;;;999529;29;1437;-35
2021/12/20 00:46:07;;;;;;;;;;;;;;;;;;998803;29;1105;-37
2021/12/20 00:46:37;;;;;;;;;;;;;;;;;;996296;29;1517;-34
2021/12/20 00:47:08;;;;;;;;;;;;;;;;;;1003483;29;1145;-33
2021/12/20 00:47:39;;;;;;;;;;;;;;;;;;1004843;29;1235;-36
2021/12/20 00:48:10;;;;;;;;;;;;;;;;;;999603;29;1204;-33
2021/12/20 00:48:40;;;;;;;;;;;;;;;;;;992379;29;967;-36
2021/12/20 00:49:11;;;;;;;;;;;;;;;;;;992394;29;1178;-36
2021/12/20 00:49:41;;;;;;;;;;;;;;;;;;999225;29;1402;-37
2021/12/20 00:50:12;;;;;;;;;;;;;;;;;;999532;29;1200;-35
2021/12/20 00:50:43;;;;;;;;;;;;;;;;;;1011748;29;1243;-35
2021/12/20 00:51:13;;;;;;;;;;;;;;;;;;1011655;29;1277;-35
2021/12/20 00:51:44;;;;;;;;;;;;;;;;;;1012005;29;1009;-36
2021/12/20 00:52:14;;;;;;;;;;;;;;;;;;1011855;29;998;-34
2021/12/20 00:52:44;;;;;;;;;;;;;;;;;;1012283;29;868;-34
2021/12/20 00:53:15;;;;;;;;;;;;;;;;;;1012037;29;993;-37
2021/12/20 00:53:45;;;;;;;;;;;;;;;;;;1012171;29;883;-37
2021/12/20 00:54:16;;;;;;;;;;;;;;;;;;1011316;29;1500;-36
2021/12/20 00:54:47;;;;;;;;;;;;;;;;;;1011550;29;1060;-36
2021/12/20 00:55:18;;;;;;;;;;;;;;;;;;1007381;29;1039;-35
2021/12/20 00:55:48;;;;;;;;;;;;;;;;;;995908;29;1084;-35
2021/12/20 00:56:19;;;;;;;;;;;;;;;;;;992196;29;1310;-35
2021/12/20 00:56:49;;;;;;;;;;;;;;;;;;992392;29;1157;-34
2021/12/20 00:57:19;;;;;;;;;;;;;;;;;;999296;29;1903;-36
2021/12/20 00:57:51;;;;;;;;;;;;;;;;;;1011745;29;980;-37
2021/12/20 00:58:22;;;;;;;;;;;;;;;;;;1007456;29;1030;-36
2021/12/20 00:58:53;;;;;;;;;;;;;;;;;;1007207;29;1006;-35
2021/12/20 00:59:23;;;;;;;;;;;;;;;;;;999955;29;1176;-34
2021/12/20 00:59:54;;;;;;;;;;;;;;;;;;999798;29;997;-36
2021/12/20 01:00:32;;;;;;;;;;;;;;;;;;1003689;29;970;-37
2021/12/20 01:01:03;;;;;;;;;;;;;;;;;;1005676;29;876;-35
2021/12/20 01:01:33;;;;;;;;;;;;;;;;;;1010677;29;1508;-35
2021/12/20 01:02:04;;;;;;;;;;;;;;;;;;1007448;29;1150;-36
2021/12/20 01:02:34;;;;;;;;;;;;;;;;;;1007520;29;1031;-34
2021/12/20 01:03:05;;;;;;;;;;;;;;;;;;1007485;29;923;-39
2021/12/20 01:03:36;;;;;;;;;;;;;;;;;;1007855;29;995;-36
2021/12/20 01:04:07;;;;;;;;;;;;;;;;;;1011256;29;1002;-37
2021/12/20 01:04:37;;;;;;;;;;;;;;;;;;1011380;29;947;-36
2021/12/20 01:05:08;;;;;;;;;;;;;;;;;;1011445;29;923;-36
2021/12/20 01:05:39;;;;;;;;;;;;;;;;;;1007545;29;937;-36
2021/12/20 01:06:09;;;;;;;;;;;;;;;;;;1007444;29;1146;-36
2021/12/20 01:06:40;;;;;;;;;;;;;;;;;;1007250;29;1070;-36
2021/12/20 01:07:10;;;;;;;;;;;;;;;;;;1007223;29;1094;-37
2021/12/20 01:07:41;;;;;;;;;;;;;;;;;;1011811;29;916;-35
2021/12/20 01:08:12;;;;;;;;;;;;;;;;;;1011932;29;951;-37
2021/12/20 01:08:43;;;;;;;;;;;;;;;;;;1007616;29;851;-33
2021/12/20 01:09:14;;;;;;;;;;;;;;;;;;1007298;29;846;-32
2021/12/20 01:09:44;;;;;;;;;;;;;;;;;;1007739;29;1032;-34
2021/12/20 01:10:16;;;;;;;;;;;;;;;;;;1007686;29;785;-36
2021/12/20 01:10:50;;;;;;;;;;;;;;;;;;1011680;29;1501;-35
2021/12/20 01:11:25;;;;;;;;;;;;;;;;;;1012167;29;1044;-36
2021/12/20 01:12:02;;;;;;;;;;;;;;;;;;1011755;29;1615;-36
2021/12/20 01:12:42;;;;;;;;;;;;;;;;;;1007594;29;974;-36
2021/12/20 01:13:13;;;;;;;;;;;;;;;;;;1007401;29;912;-34
2021/12/20 01:13:44;;;;;;;;;;;;;;;;;;1007532;29;982;-34
2021/12/20 01:14:22;;;;;;;;;;;;;;;;;;1002016;29;987;-34
2021/12/20 01:14:58;;;;;;;;;;;;;;;;;;999455;29;1131;-37
2021/12/20 01:15:34;;;;;;;;;;;;;;;;;;999698;29;1158;-36
2021/12/20 01:16:06;;;;;;;;;;;;;;;;;;1001731;29;1560;-37
2021/12/20 01:16:36;;;;;;;;;;;;;;;;;;1003580;29;1072;-37
2021/12/20 01:17:07;;;;;;;;;;;;;;;;;;1006188;29;1050;-37
2021/12/20 01:17:38;;;;;;;;;;;;;;;;;;1010930;29;1977;-36
2021/12/20 01:18:08;;;;;;;;;;;;;;;;;;1011335;29;837;-38
2021/12/20 01:18:39;;;;;;;;;;;;;;;;;;1010878;29;1338;-33
2021/12/20 01:19:09;;;;;;;;;;;;;;;;;;1007788;29;983;-35
2021/12/20 01:19:40;;;;;;;;;;;;;;;;;;1007977;29;1009;-37
2021/12/20 01:20:11;;;;;;;;;;;;;;;;;;1007800;29;954;-36
2021/12/20 01:20:42;;;;;;;;;;;;;;;;;;1012156;29;943;-36
2021/12/20 01:21:13;;;;;;;;;;;;;;;;;;1010706;29;1123;-36
2021/12/20 01:21:44;;;;;;;;;;;;;;;;;;1011138;29;991;-41
2021/12/20 01:22:14;;;;;;;;;;;;;;;;;;1011120;29;1103;-37
2021/12/20 01:22:46;;;;;;;;;;;;;;;;;;1010482;29;1274;-37
2021/12/20 01:23:18;;;;;;;;;;;;;;;;;;1007308;29;989;-34
2021/12/20 01:23:48;;;;;;;;;;;;;;;;;;1007166;29;1192;-37
2021/12/20 01:24:18;;;;;;;;;;;;;;;;;;1007671;29;1106;-36
2021/12/20 01:24:49;;;;;;;;;;;;;;;;;;1008782;29;1073;-38
2021/12/20 01:25:20;;;;;;;;;;;;;;;;;;1007334;29;1087;-35
2021/12/20 01:25:50;;;;;;;;;;;;;;;;;;1008211;29;959;-36
2021/12/20 01:26:21;;;;;;;;;;;;;;;;;;1003680;29;1060;-36
2021/12/20 01:26:52;;;;;;;;;;;;;;;;;;1003855;29;1064;-38
2021/12/20 01:27:22;;;;;;;;;;;;;;;;;;1006621;29;1408;-38
2021/12/20 01:27:53;;;;;;;;;;;;;;;;;;1007099;29;1065;-37
2021/12/20 01:28:23;;;;;;;;;;;;;;;;;;1007473;29;995;-38
2021/12/20 01:28:53;;;;;;;;;;;;;;;;;;1007339;29;1058;-35
2021/12/20 01:29:25;;;;;;;;;;;;;;;;;;1007648;29;1177;-35
2021/12/20 01:29:55;;;;;;;;;;;;;;;;;;1007284;29;953;-38
2021/12/20 01:30:26;;;;;;;;;;;;;;;;;;1007208;29;1026;-36
2021/12/20 01:30:57;;;;;;;;;;;;;;;;;;1003493;29;993;-37
2021/12/20 01:31:28;;;;;;;;;;;;;;;;;;1003267;29;963;-37
2021/12/20 01:31:58;;;;;;;;;;;;;;;;;;999276;29;1352;-38
2021/12/20 01:32:30;;;;;;;;;;;;;;;;;;992038;29;1189;-34
2021/12/20 01:33:00;;;;;;;;;;;;;;;;;;999792;29;1057;-38
2021/12/20 01:33:30;;;;;;;;;;;;;;;;;;999698;29;942;-37
2021/12/20 01:34:01;;;;;;;;;;;;;;;;;;1000044;29;789;-37
2021/12/20 01:34:31;;;;;;;;;;;;;;;;;;1007769;29;797;-37
2021/12/20 01:35:02;;;;;;;;;;;;;;;;;;1007455;29;881;-36
2021/12/20 01:35:33;;;;;;;;;;;;;;;;;;1007423;29;1357;-36
2021/12/20 01:36:04;;;;;;;;;;;;;;;;;;1002884;29;1213;-36
2021/12/20 01:36:34;;;;;;;;;;;;;;;;;;1003497;29;1207;-33
2021/12/20 01:37:04;;;;;;;;;;;;;;;;;;1003509;29;1162;-35
2021/12/20 01:37:35;;;;;;;;;;;;;;;;;;1003286;29;2374;-37
2021/12/20 01:38:06;;;;;;;;;;;;;;;;;;1011822;29;1387;-37
2021/12/20 01:38:36;;;;;;;;;;;;;;;;;;1003409;29;950;-36
2021/12/20 01:39:08;;;;;;;;;;;;;;;;;;1007207;29;992;-37
2021/12/20 01:39:38;;;;;;;;;;;;;;;;;;1007386;29;953;-33
2021/12/20 01:40:10;;;;;;;;;;;;;;;;;;999536;29;1081;-37
2021/12/20 01:40:41;;;;;;;;;;;;;;;;;;1003633;29;980;-36
2021/12/20 01:41:11;;;;;;;;;;;;;;;;;;1003348;29;949;-35
2021/12/20 01:41:43;;;;;;;;;;;;;;;;;;1003762;29;928;-36
2021/12/20 01:42:17;;;;;;;;;;;;;;;;;;1007055;29;1277;-36
2021/12/20 01:42:48;;;;;;;;;;;;;;;;;;1007826;29;1034;-34
2021/12/20 01:43:18;;;;;;;;;;;;;;;;;;1011786;29;1110;-36
2021/12/20 01:43:48;;;;;;;;;;;;;;;;;;1007518;29;1191;-36
2021/12/20 01:44:19;;;;;;;;;;;;;;;;;;1007727;29;963;-36
2021/12/20 01:44:50;;;;;;;;;;;;;;;;;;1007797;29;1127;-36
2021/12/20 01:45:23;;;;;;;;;;;;;;;;;;1003441;29;1088;-34
2021/12/20 01:45:53;;;;;;;;;;;;;;;;;;999554;29;1400;-35
2021/12/20 01:46:24;;;;;;;;;;;;;;;;;;999313;29;1601;-37
2021/12/20 01:46:55;;;;;;;;;;;;;;;;;;1000226;29;1004;-36
2021/12/20 01:47:29;;;;;;;;;;;;;;;;;;1004123;29;1165;-35
2021/12/20 01:48:07;;;;;;;;;;;;;;;;;;1011096;29;1147;-36
2021/12/20 01:48:39;;;;;;;;;;;;;;;;;;1011173;29;1089;-35
2021/12/20 01:49:13;;;;;;;;;;;;;;;;;;1010348;29;1717;-36
2021/12/20 01:51:30;;;;;;;;;;;;;;;;;;1007270;29;1025;-36
2021/12/20 01:52:04;;;;;;;;;;;;;;;;;;1007420;29;908;-37
2021/12/20 01:52:43;;;;;;;;;;;;;;;;;;1009259;29;980;-35
2021/12/20 01:53:14;;;;;;;;;;;;;;;;;;1006924;29;1097;-37
2021/12/20 01:53:45;;;;;;;;;;;;;;;;;;1007230;29;1262;-36
2021/12/20 01:54:15;;;;;;;;;;;;;;;;;;1006964;29;1505;-37
2021/12/20 01:54:46;;;;;;;;;;;;;;;;;;1008579;29;1137;-36
2021/12/20 01:55:18;;;;;;;;;;;;;;;;;;1011811;29;1534;-35
2021/12/20 01:55:50;;;;;;;;;;;;;;;;;;1002677;29;1152;-34
2021/12/20 01:56:21;;;;;;;;;;;;;;;;;;1003469;29;1031;-36
2021/12/20 01:56:52;;;;;;;;;;;;;;;;;;1003292;29;987;-37
2021/12/20 01:57:24;;;;;;;;;;;;;;;;;;999825;29;1907;-36
2021/12/20 01:57:54;;;;;;;;;;;;;;;;;;1003236;29;1305;-35
2021/12/20 01:58:26;;;;;;;;;;;;;;;;;;999639;29;1003;-37
2021/12/20 01:59:01;;;;;;;;;;;;;;;;;;999502;29;1135;-35
2021/12/20 01:59:31;;;;;;;;;;;;;;;;;;1005304;29;947;-35
2021/12/20 02:00:07;;;;;;;;;;;;;;;;;;1011080;29;1198;-37
2021/12/20 02:00:43;;;;;;;;;;;;;;;;;;1003524;29;989;-34
2021/12/20 02:01:45;;;;;;;;;;;;;;;;;;1003338;29;1084;-37
2021/12/20 02:02:16;;;;;;;;;;;;;;;;;;1004303;29;1051;-35
2021/12/20 02:02:49;;;;;;;;;;;;;;;;;;1007286;29;852;-37
2021/12/20 02:03:20;;;;;;;;;;;;;;;;;;1003032;29;1177;-36
2021/12/20 02:03:56;;;;;;;;;;;;;;;;;;999176;29;1195;-36
2021/12/20 02:04:27;;;;;;;;;;;;;;;;;;999582;29;1034;-37
2021/12/20 02:05:06;;;;;;;;;;;;;;;;;;999527;29;1165;-37
2021/12/20 02:06:16;;;;;;;;;;;;;;;;;;995431;29;1138;-34
2021/12/20 02:06:48;;;;;;;;;;;;;;;;;;1000447;29;1147;-36
2021/12/20 02:07:48;;;;;;;;;;;;;;;;;;1003430;29;892;-37
2021/12/20 02:08:24;;;;;;;;;;;;;;;;;;1012012;29;895;-37
2021/12/20 02:08:55;;;;;;;;;;;;;;;;;;1011753;29;1281;-38
2021/12/20 02:09:25;;;;;;;;;;;;;;;;;;1011244;29;1460;-35
2021/12/20 02:09:56;;;;;;;;;;;;;;;;;;1011929;29;1385;-38
2021/12/20 02:10:27;;;;;;;;;;;;;;;;;;1011765;29;1356;-36
2021/12/20 02:11:00;;;;;;;;;;;;;;;;;;1003498;29;888;-37
2021/12/20 02:11:32;;;;;;;;;;;;;;;;;;1003294;29;979;-35
2021/12/20 02:12:02;;;;;;;;;;;;;;;;;;1003383;29;907;-37
2021/12/20 02:12:33;;;;;;;;;;;;;;;;;;1004689;29;1019;-37
2021/12/20 02:13:03;;;;;;;;;;;;;;;;;;1011790;29;955;-35
2021/12/20 02:13:34;;;;;;;;;;;;;;;;;;1007090;29;1107;-36
2021/12/20 02:14:05;;;;;;;;;;;;;;;;;;1007202;29;988;-34
2021/12/20 02:14:36;;;;;;;;;;;;;;;;;;1006825;29;1185;-35
2021/12/20 02:15:07;;;;;;;;;;;;;;;;;;1003504;29;892;-37
2021/12/20 02:15:37;;;;;;;;;;;;;;;;;;1007160;29;1033;-36
2021/12/20 02:16:09;;;;;;;;;;;;;;;;;;1003271;29;959;-35
2021/12/20 02:16:40;;;;;;;;;;;;;;;;;;995367;29;1346;-38
2021/12/20 02:17:14;;;;;;;;;;;;;;;;;;995623;29;1081;-37
2021/12/20 02:17:44;;;;;;;;;;;;;;;;;;991870;29;1972;-37
2021/12/20 02:18:16;;;;;;;;;;;;;;;;;;993691;29;1254;-37
2021/12/20 02:18:46;;;;;;;;;;;;;;;;;;1003230;29;956;-37
2021/12/20 02:19:17;;;;;;;;;;;;;;;;;;1003934;29;1067;-35
2021/12/20 02:19:47;;;;;;;;;;;;;;;;;;1010929;29;975;-39
2021/12/20 02:20:25;;;;;;;;;;;;;;;;;;1011863;29;904;-35
2021/12/20 02:20:56;;;;;;;;;;;;;;;;;;1011757;29;815;-35
2021/12/20 02:21:26;;;;;;;;;;;;;;;;;;1011849;29;937;-36
2021/12/20 02:21:57;;;;;;;;;;;;;;;;;;1010761;29;1284;-37
2021/12/20 02:22:28;;;;;;;;;;;;;;;;;;1010925;29;1005;-38
2021/12/20 02:22:59;;;;;;;;;;;;;;;;;;1007164;29;1053;-37
2021/12/20 02:23:29;;;;;;;;;;;;;;;;;;1007178;29;1154;-38
2021/12/20 02:24:00;;;;;;;;;;;;;;;;;;1007078;29;1003;-36
2021/12/20 02:24:31;;;;;;;;;;;;;;;;;;1002711;29;1202;-35
2021/12/20 02:25:01;;;;;;;;;;;;;;;;;;998614;29;1496;-38
2021/12/20 02:25:32;;;;;;;;;;;;;;;;;;999620;29;926;-38
2021/12/20 02:26:04;;;;;;;;;;;;;;;;;;991187;29;1356;-36
2021/12/20 02:26:36;;;;;;;;;;;;;;;;;;995940;29;1429;-36
2021/12/20 02:27:06;;;;;;;;;;;;;;;;;;999391;29;1171;-35
2021/12/20 02:27:36;;;;;;;;;;;;;;;;;;999678;29;1561;-36
2021/12/20 02:28:30;;;;;;;;;;;;;;;;;;1010946;29;1137;-36
2021/12/20 02:29:05;;;;;;;;;;;;;;;;;;1007544;29;1070;-37
2021/12/20 02:30:00;;;;;;;;;;;;;;;;;;1007147;29;1127;-35
2021/12/20 02:36:57;;;;;;;;;;;;;;;;;;1003242;29;932;-35
2021/12/20 02:37:27;;;;;;;;;;;;;;;;;;987965;30;1907;-36
2021/12/20 02:38:18;;;;;;;;;;;;;;;;;;992425;29;1161;-36
2021/12/20 02:38:49;;;;;;;;;;;;;;;;;;991816;29;1040;-37
2021/12/20 02:39:20;;;;;;;;;;;;;;;;;;997511;29;1652;-38
2021/12/20 02:39:50;;;;;;;;;;;;;;;;;;999918;29;1237;-37
2021/12/20 02:40:22;;;;;;;;;;;;;;;;;;1003294;29;1155;-37
2021/12/20 02:41:01;;;;;;;;;;;;;;;;;;1002581;29;1310;-38
2021/12/20 02:41:32;;;;;;;;;;;;;;;;;;1003399;29;982;-36
2021/12/20 02:42:03;;;;;;;;;;;;;;;;;;1002300;29;1432;-37
2021/12/20 02:42:34;;;;;;;;;;;;;;;;;;1003312;29;1256;-38
2021/12/20 02:43:05;;;;;;;;;;;;;;;;;;1003955;29;944;-38
2021/12/20 02:43:40;;;;;;;;;;;;;;;;;;1003211;29;1130;-38
2021/12/20 02:44:22;;;;;;;;;;;;;;;;;;1003369;29;923;-38
2021/12/20 02:45:08;;;;;;;;;;;;;;;;;;999308;29;1014;-38
2021/12/20 02:45:39;;;;;;;;;;;;;;;;;;995580;29;1220;-37
2021/12/20 02:47:30;;;;;;;;;;;;;;;;;;997868;29;1154;-37
2021/12/20 02:48:00;;;;;;;;;;;;;;;;;;999602;29;931;-38
2021/12/20 02:48:31;;;;;;;;;;;;;;;;;;999250;29;1279;-38
2021/12/20 02:49:01;;;;;;;;;;;;;;;;;;999291;29;1015;-37
2021/12/20 02:49:33;;;;;;;;;;;;;;;;;;999561;29;955;-36
2021/12/20 02:50:04;;;;;;;;;;;;;;;;;;999058;29;1397;-37
2021/12/20 02:50:35;;;;;;;;;;;;;;;;;;1002996;29;1393;-37
2021/12/20 02:51:05;;;;;;;;;;;;;;;;;;1003035;29;1085;-38
2021/12/20 02:51:37;;;;;;;;;;;;;;;;;;1003309;29;1111;-36
2021/12/20 02:52:08;;;;;;;;;;;;;;;;;;1003172;29;982;-40
2021/12/20 02:52:39;;;;;;;;;;;;;;;;;;1002624;29;1367;-38
2021/12/20 02:53:10;;;;;;;;;;;;;;;;;;995551;29;1015;-38
2021/12/20 02:53:40;;;;;;;;;;;;;;;;;;995767;29;1066;-36
2021/12/20 02:54:11;;;;;;;;;;;;;;;;;;994857;29;1800;-37
2021/12/20 02:54:42;;;;;;;;;;;;;;;;;;991829;29;1116;-38
2021/12/20 02:55:13;;;;;;;;;;;;;;;;;;991775;29;1149;-37
2021/12/20 02:55:43;;;;;;;;;;;;;;;;;;991822;29;1064;-38
2021/12/20 02:56:14;;;;;;;;;;;;;;;;;;991709;29;1117;-36
2021/12/20 02:56:44;;;;;;;;;;;;;;;;;;995609;29;967;-38
2021/12/20 02:57:15;;;;;;;;;;;;;;;;;;999465;29;996;-36
2021/12/20 02:57:45;;;;;;;;;;;;;;;;;;998936;29;1908;-35
2021/12/20 02:58:16;;;;;;;;;;;;;;;;;;999371;29;1278;-38
2021/12/20 02:58:46;;;;;;;;;;;;;;;;;;1003857;29;1109;-38
2021/12/20 02:59:17;;;;;;;;;;;;;;;;;;1003492;29;1214;-38
2021/12/20 02:59:48;;;;;;;;;;;;;;;;;;1003157;29;1046;-37
2021/12/20 03:00:20;;;;;;;;;;;;;;;;;;999287;29;972;-37
2021/12/20 03:00:51;;;;;;;;;;;;;;;;;;995202;29;977;-37
2021/12/20 03:01:22;;;;;;;;;;;;;;;;;;995514;29;900;-38
2021/12/20 03:02:04;;;;;;;;;;;;;;;;;;992012;29;1357;-37
2021/12/20 03:02:35;;;;;;;;;;;;;;;;;;1001099;29;1151;-38
2021/12/20 03:03:06;;;;;;;;;;;;;;;;;;1002919;29;1088;-37
2021/12/20 03:03:36;;;;;;;;;;;;;;;;;;1003376;29;1201;-38
2021/12/20 03:04:07;;;;;;;;;;;;;;;;;;1003062;29;1150;-36
2021/12/20 03:04:38;;;;;;;;;;;;;;;;;;1003978;29;1062;-36
2021/12/20 03:05:10;;;;;;;;;;;;;;;;;;1003131;29;969;-38
2021/12/20 03:05:41;;;;;;;;;;;;;;;;;;1003325;29;1186;-37
2021/12/20 03:06:13;;;;;;;;;;;;;;;;;;1002996;29;1066;-36
2021/12/20 03:06:45;;;;;;;;;;;;;;;;;;1003370;29;873;-35
2021/12/20 03:07:21;;;;;;;;;;;;;;;;;;1003839;29;900;-37
2021/12/20 03:07:53;;;;;;;;;;;;;;;;;;1003941;29;940;-34
2021/12/20 03:08:23;;;;;;;;;;;;;;;;;;1002814;29;1638;-36
2021/12/20 03:08:55;;;;;;;;;;;;;;;;;;1002783;29;1191;-38
2021/12/20 03:09:29;;;;;;;;;;;;;;;;;;1003138;29;1071;-34
2021/12/20 03:10:03;;;;;;;;;;;;;;;;;;1002450;29;1078;-36
2021/12/20 03:10:34;;;;;;;;;;;;;;;;;;1000722;29;893;-36
2021/12/20 03:11:05;;;;;;;;;;;;;;;;;;1003651;29;1094;-35
2021/12/20 03:11:36;;;;;;;;;;;;;;;;;;1004060;29;944;-37
2021/12/20 03:12:09;;;;;;;;;;;;;;;;;;1003844;29;888;-37
2021/12/20 03:12:39;;;;;;;;;;;;;;;;;;1003166;29;1012;-37
2021/12/20 03:13:10;;;;;;;;;;;;;;;;;;1003111;29;1057;-38
2021/12/20 03:13:43;;;;;;;;;;;;;;;;;;1003223;29;1422;-38
2021/12/20 03:14:26;;;;;;;;;;;;;;;;;;995409;29;1059;-37
2021/12/20 03:15:02;;;;;;;;;;;;;;;;;;995856;29;940;-36
2021/12/20 03:15:32;;;;;;;;;;;;;;;;;;995646;29;1005;-36
2021/12/20 03:16:03;;;;;;;;;;;;;;;;;;994029;29;1045;-37
2021/12/20 03:16:34;;;;;;;;;;;;;;;;;;995545;29;1079;-36
2021/12/20 03:17:05;;;;;;;;;;;;;;;;;;995538;29;1669;-35
2021/12/20 03:17:36;;;;;;;;;;;;;;;;;;995834;29;1911;-36
2021/12/20 03:18:06;;;;;;;;;;;;;;;;;;1002467;29;1527;-35
2021/12/20 03:18:37;;;;;;;;;;;;;;;;;;1003273;29;1705;-33
2021/12/20 03:19:08;;;;;;;;;;;;;;;;;;1002749;29;1098;-36
2021/12/20 03:19:39;;;;;;;;;;;;;;;;;;1003241;29;975;-35
2021/12/20 03:20:10;;;;;;;;;;;;;;;;;;999344;29;937;-36
2021/12/20 03:20:41;;;;;;;;;;;;;;;;;;999367;29;906;-37
2021/12/20 03:21:12;;;;;;;;;;;;;;;;;;998918;29;1159;-37
2021/12/20 03:21:42;;;;;;;;;;;;;;;;;;995666;29;1164;-36
2021/12/20 03:22:12;;;;;;;;;;;;;;;;;;1003952;29;904;-37
2021/12/20 03:22:43;;;;;;;;;;;;;;;;;;1003209;29;996;-34
2021/12/20 03:23:13;;;;;;;;;;;;;;;;;;1003163;29;946;-37
2021/12/20 03:23:44;;;;;;;;;;;;;;;;;;1003240;29;930;-35
2021/12/20 03:24:15;;;;;;;;;;;;;;;;;;1003221;29;1080;-36
2021/12/20 03:24:47;;;;;;;;;;;;;;;;;;995325;29;983;-37
2021/12/20 03:25:18;;;;;;;;;;;;;;;;;;989552;29;1148;-35
2021/12/20 03:25:48;;;;;;;;;;;;;;;;;;987749;29;1078;-37
2021/12/20 03:26:19;;;;;;;;;;;;;;;;;;991867;29;1087;-36
2021/12/20 03:26:50;;;;;;;;;;;;;;;;;;995447;29;1230;-36
2021/12/20 03:27:20;;;;;;;;;;;;;;;;;;1002554;29;1110;-37
2021/12/20 03:27:52;;;;;;;;;;;;;;;;;;999335;29;1000;-37
2021/12/20 03:28:22;;;;;;;;;;;;;;;;;;991273;29;1298;-36
2021/12/20 03:28:53;;;;;;;;;;;;;;;;;;991829;29;1154;-37
2021/12/20 03:29:24;;;;;;;;;;;;;;;;;;991174;29;992;-34
2021/12/20 03:29:54;;;;;;;;;;;;;;;;;;995819;29;1072;-34
2021/12/20 03:30:25;;;;;;;;;;;;;;;;;;1007061;29;1062;-38
2021/12/20 03:30:56;;;;;;;;;;;;;;;;;;1007033;29;1059;-35
2021/12/20 03:31:26;;;;;;;;;;;;;;;;;;1011311;29;1149;-36
2021/12/20 03:31:57;;;;;;;;;;;;;;;;;;1011085;29;1822;-36
2021/12/20 03:32:27;;;;;;;;;;;;;;;;;;1011360;29;1034;-35
2021/12/20 03:32:57;;;;;;;;;;;;;;;;;;1011714;29;797;-36
2021/12/20 03:33:28;;;;;;;;;;;;;;;;;;1011515;29;955;-36
2021/12/20 03:33:59;;;;;;;;;;;;;;;;;;1011601;29;999;-37
2021/12/20 03:34:29;;;;;;;;;;;;;;;;;;1011541;29;1002;-37
2021/12/20 03:34:59;;;;;;;;;;;;;;;;;;1011617;29;1014;-36
2021/12/20 03:35:30;;;;;;;;;;;;;;;;;;1010476;29;1290;-34
2021/12/20 03:36:01;;;;;;;;;;;;;;;;;;1003169;29;982;-37
2021/12/20 03:36:31;;;;;;;;;;;;;;;;;;1002757;29;1283;-37
2021/12/20 03:37:02;;;;;;;;;;;;;;;;;;1003278;29;1168;-38
2021/12/20 03:37:33;;;;;;;;;;;;;;;;;;998935;29;1899;-35
2021/12/20 03:38:04;;;;;;;;;;;;;;;;;;1002812;29;1185;-37
2021/12/20 03:38:34;;;;;;;;;;;;;;;;;;1003173;29;1127;-34
2021/12/20 03:39:05;;;;;;;;;;;;;;;;;;1002930;29;1332;-37
2021/12/20 03:39:36;;;;;;;;;;;;;;;;;;995841;29;1445;-37
2021/12/20 03:40:07;;;;;;;;;;;;;;;;;;999129;29;1010;-37
2021/12/20 03:40:37;;;;;;;;;;;;;;;;;;999384;29;1054;-36
2021/12/20 03:41:08;;;;;;;;;;;;;;;;;;999447;29;797;-35
2021/12/20 03:41:39;;;;;;;;;;;;;;;;;;999273;29;986;-37
2021/12/20 03:42:10;;;;;;;;;;;;;;;;;;1003024;29;1173;-37
2021/12/20 03:42:45;;;;;;;;;;;;;;;;;;999116;29;1327;-35
2021/12/20 03:43:17;;;;;;;;;;;;;;;;;;995429;29;1031;-37
2021/12/20 03:43:48;;;;;;;;;;;;;;;;;;997299;29;1072;-37
2021/12/20 03:44:19;;;;;;;;;;;;;;;;;;998359;29;1473;-37
2021/12/20 03:44:49;;;;;;;;;;;;;;;;;;996348;29;949;-37
2021/12/20 03:45:20;;;;;;;;;;;;;;;;;;999360;29;1037;-38
2021/12/20 03:45:56;;;;;;;;;;;;;;;;;;999326;29;1053;-40
2021/12/20 03:46:27;;;;;;;;;;;;;;;;;;995459;29;987;-37
2021/12/20 03:46:58;;;;;;;;;;;;;;;;;;993779;29;1638;-37
2021/12/20 03:47:29;;;;;;;;;;;;;;;;;;1002737;29;1541;-32
2021/12/20 03:48:00;;;;;;;;;;;;;;;;;;1002023;29;1384;-36
2021/12/20 03:48:31;;;;;;;;;;;;;;;;;;995266;29;1079;-37
2021/12/20 03:49:02;;;;;;;;;;;;;;;;;;1003024;29;1095;-38
2021/12/20 03:49:32;;;;;;;;;;;;;;;;;;1002868;29;1348;-37
2021/12/20 03:50:03;;;;;;;;;;;;;;;;;;999140;29;1021;-36
2021/12/20 03:50:33;;;;;;;;;;;;;;;;;;999365;29;1019;-36
2021/12/20 03:51:04;;;;;;;;;;;;;;;;;;999191;29;1127;-38
2021/12/20 03:51:35;;;;;;;;;;;;;;;;;;999399;29;977;-38
2021/12/20 03:52:10;;;;;;;;;;;;;;;;;;1003178;29;955;-36
2021/12/20 03:52:40;;;;;;;;;;;;;;;;;;1003011;29;1060;-36
2021/12/20 03:53:11;;;;;;;;;;;;;;;;;;1002933;29;1299;-39
2021/12/20 03:53:41;;;;;;;;;;;;;;;;;;1002883;29;1433;-38
2021/12/20 03:54:12;;;;;;;;;;;;;;;;;;1003259;29;1038;-38
2021/12/20 03:54:42;;;;;;;;;;;;;;;;;;1004762;29;1193;-36
2021/12/20 03:55:14;;;;;;;;;;;;;;;;;;1003122;29;949;-34